This is the latest recevied weather packets stored in our database for station/object TG5ALY-16. If no packets are shown the sender has not sent any weather packets the latest 10 day(s).
| Time | Temp. | Humidity | Pressure | Rain* | Wind** | Luminosity | Snow |
|---|---|---|---|---|---|---|---|
| 1778243221 | 11.67° C | 90% | 1016 hPa | 0 mm | - | - | - |
| 1778242620 | 11.67° C | 87% | 1017 hPa | 0 mm | - | - | - |
| 1778242019 | 11.67° C | 83% | 1017 hPa | 0 mm | - | - | - |
| 1778241419 | 11.67° C | 85% | 1017 hPa | 0 mm | - | - | - |
| 1778240818 | 10.56° C | 90% | 1017 hPa | 0 mm | - | - | - |
| 1778240217 | 10.56° C | 90% | 1017 hPa | 0 mm | - | - | - |
| 1778239617 | 11.67° C | 91% | 1016 hPa | 0 mm | - | - | - |
| 1778239016 | 11.67° C | 91% | 1016 hPa | 0 mm | - | - | - |
| 1778238415 | 11.67° C | 91% | 1016 hPa | 0 mm | - | - | - |
| 1778237814 | 11.67° C | 91% | 1016 hPa | 0 mm | - | - | - |
| 1778237214 | 12.22° C | 89% | 1016 hPa | 0 mm | - | - | - |
| 1778236613 | 12.22° C | 90% | 1016 hPa | 0 mm | - | - | - |
| 1778236012 | 11.67° C | 92% | 1016 hPa | 0 mm | - | - | - |
| 1778235412 | 11.67° C | 92% | 1016 hPa | 0 mm | - | - | - |
| 1778234811 | 11.67° C | 91% | 1016 hPa | 0 mm | - | - | - |
| 1778234210 | 11.67° C | 91% | 1016 hPa | 0 mm | - | - | - |
| 1778233609 | 11.67° C | 91% | 1016 hPa | 0 mm | - | - | - |
| 1778233009 | 11.67° C | 91% | 1016 hPa | 0 mm | - | - | - |
| 1778232408 | 12.78° C | 89% | 1016 hPa | 0 mm | - | - | - |
| 1778231807 | 12.78° C | 89% | 1016 hPa | 0 mm | - | - | - |
| 1778231207 | 12.78° C | 89% | 1016 hPa | 0 mm | - | - | - |
| 1778230606 | 12.78° C | 89% | 1016 hPa | 0 mm | - | - | - |
| 1778230005 | 12.78° C | 91% | 1016 hPa | 0 mm | - | - | - |
| 1778229404 | 12.78° C | 91% | 1016 hPa | 0 mm | - | - | - |
| 1778228804 | 12.22° C | 92% | 1016 hPa | 0 mm | - | - | - |
* Rain latest hour (hover to see other rain measurements)
** Current wind speed in m/s (hover to see current wind gust speed)